createdAt,value
2019-02-15T00:00:29.008Z,19.40
2019-02-15T00:03:00.262Z,19.23
2019-02-15T00:05:29.774Z,20.83
2019-02-15T00:07:59.146Z,20.37
2019-02-15T00:10:28.714Z,19.43
2019-02-15T00:12:58.158Z,19.27
2019-02-15T00:15:27.798Z,18.43
2019-02-15T00:17:59.539Z,20.23
2019-02-15T00:20:48.600Z,18.77
2019-02-15T00:23:18.171Z,18.47
2019-02-15T00:25:47.699Z,18.63
2019-02-15T00:28:17.145Z,18.07
2019-02-15T00:30:46.486Z,18.03
2019-02-15T00:33:15.938Z,18.37
2019-02-15T00:35:45.412Z,18.13
2019-02-15T00:38:14.971Z,17.87
2019-02-15T00:40:44.460Z,17.97
2019-02-15T00:43:21.927Z,17.83
2019-02-15T00:46:04.572Z,17.07
2019-02-15T00:48:34.049Z,18.40
2019-02-15T00:51:11.166Z,17.30
2019-02-15T00:53:47.918Z,17.47
2019-02-15T00:56:24.704Z,16.63
2019-02-15T00:59:10.854Z,15.97
2019-02-15T01:01:48.116Z,16.97
2019-02-15T01:04:25.198Z,17.50
2019-02-15T01:06:56.307Z,16.43
2019-02-15T01:09:27.337Z,16.83
2019-02-15T01:12:01.118Z,15.57
2019-02-15T01:14:30.510Z,16.13
2019-02-15T01:16:59.976Z,15.77
2019-02-15T01:19:29.396Z,15.33
2019-02-15T01:21:59.144Z,16.10
2019-02-15T01:24:28.702Z,15.60
2019-02-15T01:26:59.750Z,15.70
2019-02-15T01:29:39.884Z,15.43
2019-02-15T01:32:10.992Z,15.57
2019-02-15T01:34:53.867Z,16.23
2019-02-15T01:37:37.046Z,15.97
2019-02-15T01:40:20.021Z,16.07
2019-02-15T01:42:56.684Z,16.27
2019-02-15T01:45:27.724Z,17.10
2019-02-15T01:47:57.248Z,16.53
2019-02-15T01:50:26.748Z,16.37
2019-02-15T01:52:56.211Z,18.10
2019-02-15T01:55:25.701Z,17.33
2019-02-15T01:57:55.140Z,17.17
2019-02-15T02:00:26.261Z,18.00
2019-02-15T02:02:55.645Z,17.70
2019-02-15T02:05:25.129Z,16.87
2019-02-15T02:07:54.597Z,15.93
2019-02-15T02:10:24.144Z,17.23
2019-02-15T02:12:53.617Z,16.97
2019-02-15T02:15:23.014Z,17.00
2019-02-15T02:17:52.480Z,17.60
2019-02-15T02:20:21.854Z,16.13
2019-02-15T02:22:51.253Z,16.27
2019-02-15T02:25:20.722Z,15.60
2019-02-15T02:27:50.278Z,16.60
2019-02-15T02:30:19.737Z,15.97
2019-02-15T02:32:49.128Z,15.90
2019-02-15T02:35:18.548Z,16.77
2019-02-15T02:37:47.945Z,15.40
2019-02-15T02:40:17.467Z,15.27
2019-02-15T02:42:46.961Z,16.07
2019-02-15T02:45:16.415Z,15.33
2019-02-15T02:47:45.892Z,15.90
2019-02-15T02:50:15.291Z,15.50
2019-02-15T02:52:44.753Z,14.77
2019-02-15T02:55:14.232Z,15.27
2019-02-15T02:57:43.703Z,14.30
2019-02-15T03:00:13.428Z,15.53
2019-02-15T03:02:42.947Z,15.10
2019-02-15T03:05:12.543Z,15.80
2019-02-15T03:07:42.015Z,15.30
2019-02-15T03:10:11.526Z,14.57
2019-02-15T03:12:41.324Z,15.53
2019-02-15T03:15:10.857Z,14.63
2019-02-15T03:17:40.297Z,14.80
2019-02-15T03:20:09.824Z,15.53
2019-02-15T03:22:39.248Z,14.80
2019-02-15T03:25:08.700Z,15.30
2019-02-15T03:27:38.125Z,14.57
2019-02-15T03:30:09.505Z,14.93
2019-02-15T03:32:39.086Z,15.43
2019-02-15T03:35:09.586Z,16.37
2019-02-15T03:37:40.668Z,15.90
2019-02-15T03:40:12.001Z,15.47
2019-02-15T03:42:43.218Z,15.40
2019-02-15T03:45:13.574Z,14.97
2019-02-15T03:47:43.102Z,14.70
2019-02-15T03:50:12.555Z,16.00
2019-02-15T03:52:41.947Z,16.00
2019-02-15T03:55:11.377Z,15.60
2019-02-15T03:57:40.853Z,15.17
2019-02-15T04:00:12.361Z,15.13
2019-02-15T04:02:41.823Z,14.90
2019-02-15T04:05:11.458Z,13.87
2019-02-15T04:07:40.970Z,14.77
2019-02-15T04:10:10.477Z,15.37
2019-02-15T04:12:39.947Z,14.30
2019-02-15T04:15:10.749Z,14.87
2019-02-15T04:17:40.247Z,15.07
2019-02-15T04:20:10.137Z,14.40
2019-02-15T04:22:39.618Z,14.37
2019-02-15T04:25:09.182Z,14.37
2019-02-15T04:27:38.658Z,15.00
2019-02-15T04:30:11.812Z,15.10
2019-02-15T04:32:41.272Z,14.33
2019-02-15T04:35:10.834Z,14.00
2019-02-15T04:37:40.335Z,13.93
2019-02-15T04:40:10.267Z,14.27
2019-02-15T04:42:39.802Z,14.47
2019-02-15T04:45:09.389Z,13.40
2019-02-15T04:47:39.835Z,14.73
2019-02-15T04:50:09.656Z,15.53
2019-02-15T04:52:39.122Z,15.33
2019-02-15T04:55:08.706Z,15.43
2019-02-15T04:57:38.150Z,15.27
2019-02-15T05:00:09.175Z,16.37
2019-02-15T05:02:38.697Z,15.17
2019-02-15T05:05:08.371Z,16.63
2019-02-15T05:07:37.796Z,15.87
2019-02-15T05:10:07.223Z,15.83
2019-02-15T05:12:36.735Z,17.17
2019-02-15T05:15:07.933Z,16.47
2019-02-15T05:17:37.393Z,17.17
2019-02-15T05:20:07.871Z,16.03
2019-02-15T05:22:37.251Z,16.47
2019-02-15T05:25:06.785Z,16.20
2019-02-15T05:27:36.323Z,16.00
2019-02-15T05:30:07.600Z,17.30
2019-02-15T05:32:37.062Z,18.00
2019-02-15T05:35:06.697Z,16.27
2019-02-15T05:37:36.183Z,17.23
2019-02-15T05:40:06.378Z,17.27
2019-02-15T05:42:35.894Z,17.37
2019-02-15T05:45:06.450Z,17.47
2019-02-15T05:47:35.831Z,17.90
2019-02-15T05:50:06.088Z,15.73
2019-02-15T05:52:35.584Z,14.17
2019-02-15T05:55:05.953Z,15.73
2019-02-15T05:57:35.423Z,15.97
2019-02-15T06:00:08.099Z,16.33
2019-02-15T06:02:37.616Z,16.00
2019-02-15T06:05:08.894Z,16.90
2019-02-15T06:07:38.446Z,16.30
2019-02-15T06:10:08.679Z,18.17
2019-02-15T06:12:38.255Z,17.43
2019-02-15T06:15:14.798Z,17.07
2019-02-15T06:17:38.995Z,17.30
2019-02-15T06:20:08.529Z,17.40
2019-02-15T06:22:38.882Z,16.40
2019-02-15T06:25:08.458Z,16.80
2019-02-15T06:27:38.030Z,16.23
2019-02-15T06:30:09.026Z,15.30
2019-02-15T06:32:38.583Z,15.60
2019-02-15T06:35:08.047Z,15.63
2019-02-15T06:37:37.550Z,15.47
2019-02-15T06:40:07.237Z,16.27
2019-02-15T06:42:36.750Z,15.73
2019-02-15T06:45:07.072Z,14.50
2019-02-15T06:47:36.716Z,15.80
2019-02-15T06:50:07.671Z,16.17
2019-02-15T06:52:37.135Z,14.70
2019-02-15T06:55:07.189Z,15.13
2019-02-15T06:57:36.675Z,15.53
2019-02-15T07:00:28.679Z,15.50
2019-02-15T07:02:59.802Z,15.80
2019-02-15T07:05:29.349Z,14.93
2019-02-15T07:07:58.787Z,15.17
2019-02-15T07:10:28.664Z,15.57
2019-02-15T07:12:58.127Z,14.30
2019-02-15T07:18:15.134Z,14.10
2019-02-15T07:20:44.743Z,13.20
2019-02-15T07:23:14.265Z,14.70
2019-02-15T07:25:43.713Z,15.47
2019-02-15T07:28:13.097Z,13.00
2019-02-15T07:30:42.507Z,14.50
2019-02-15T07:33:12.011Z,14.63
2019-02-15T07:35:41.395Z,14.47
2019-02-15T07:38:10.885Z,14.07
2019-02-15T07:40:40.386Z,14.37
2019-02-15T07:43:09.843Z,14.50
2019-02-15T07:45:42.893Z,15.07
2019-02-15T07:48:10.384Z,14.20
2019-02-15T07:50:39.926Z,14.07
2019-02-15T07:53:09.387Z,14.43
2019-02-15T07:55:38.895Z,13.33
2019-02-15T07:58:26.982Z,13.87
2019-02-15T08:00:56.628Z,13.80
2019-02-15T08:03:26.072Z,13.90
2019-02-15T08:05:55.495Z,13.63
2019-02-15T08:08:24.955Z,14.13
2019-02-15T08:10:54.465Z,14.47
2019-02-15T08:13:23.843Z,14.37
2019-02-15T08:15:53.346Z,15.47
2019-02-15T08:18:28.192Z,15.97
2019-02-15T08:20:57.691Z,14.43
2019-02-15T08:23:27.116Z,14.67
2019-02-15T08:25:56.541Z,14.73
2019-02-15T08:28:26.006Z,14.10
2019-02-15T08:30:55.423Z,15.33
2019-02-15T08:33:24.881Z,14.40
2019-02-15T08:35:54.436Z,14.67
2019-02-15T08:38:23.932Z,14.70
2019-02-15T08:40:53.507Z,13.97
2019-02-15T08:43:22.993Z,14.87
2019-02-15T08:46:00.357Z,14.90
2019-02-15T08:48:23.577Z,15.37
2019-02-15T08:50:53.074Z,16.37
2019-02-15T08:53:22.510Z,15.50
2019-02-15T08:55:52.075Z,14.90
2019-02-15T08:58:21.449Z,14.30
2019-02-15T09:00:50.846Z,15.43
2019-02-15T09:03:22.183Z,15.30
2019-02-15T09:05:51.678Z,15.60
2019-02-15T09:08:21.032Z,15.00
2019-02-15T09:10:50.416Z,14.33
2019-02-15T09:13:19.944Z,14.90
2019-02-15T09:15:49.423Z,15.80
2019-02-15T09:18:19.058Z,14.30
2019-02-15T09:20:48.507Z,14.47
2019-02-15T09:23:18.011Z,14.40
2019-02-15T09:25:47.571Z,13.40
2019-02-15T09:28:18.818Z,12.77
2019-02-15T09:30:54.290Z,12.77
2019-02-15T09:33:23.834Z,12.33
2019-02-15T09:35:54.814Z,12.57
2019-02-15T09:38:24.210Z,14.80
2019-02-15T09:40:53.687Z,13.17
2019-02-15T09:43:23.150Z,13.10
2019-02-15T09:45:52.630Z,13.33
2019-02-15T09:48:22.084Z,12.93
2019-02-15T09:53:26.792Z,12.03
2019-02-15T09:55:56.222Z,11.20
2019-02-15T09:58:25.684Z,11.80
2019-02-15T10:00:55.302Z,11.67
2019-02-15T10:03:24.832Z,11.33
2019-02-15T10:05:54.303Z,10.30
2019-02-15T10:08:23.848Z,9.97
2019-02-15T10:11:11.414Z,9.07
2019-02-15T10:13:50.515Z,8.90
2019-02-15T10:16:28.327Z,8.77
2019-02-15T10:18:51.226Z,8.63
2019-02-15T10:21:20.678Z,12.43
2019-02-15T10:23:50.248Z,11.83
2019-02-15T10:26:19.678Z,11.40
2019-02-15T10:28:49.222Z,11.20
2019-02-15T10:31:18.810Z,9.30
2019-02-15T10:33:48.332Z,8.17
2019-02-15T10:36:30.544Z,8.27
2019-02-15T10:41:47.340Z,8.97
2019-02-15T10:44:16.810Z,7.97
2019-02-15T10:46:46.238Z,7.70
2019-02-15T10:49:15.737Z,7.97
2019-02-15T10:51:57.559Z,7.97
2019-02-15T10:54:42.994Z,7.50
2019-02-15T10:57:12.442Z,7.00
2019-02-15T10:59:42.005Z,6.90
2019-02-15T11:02:11.498Z,7.07
2019-02-15T11:04:41.195Z,9.13
2019-02-15T11:07:10.560Z,8.20
2019-02-15T11:09:39.994Z,8.93
2019-02-15T11:12:09.458Z,10.13
2019-02-15T11:14:38.874Z,9.80
2019-02-15T11:17:08.422Z,8.60
2019-02-15T11:19:37.890Z,8.50
2019-02-15T11:22:07.495Z,7.80
2019-02-15T11:24:37.032Z,7.23
2019-02-15T11:27:06.480Z,6.50
2019-02-15T11:29:36.058Z,6.97
2019-02-15T11:32:05.676Z,6.77
2019-02-15T11:34:35.148Z,7.30
2019-02-15T11:37:04.622Z,6.23
2019-02-15T11:39:34.194Z,6.00
2019-02-15T11:42:03.580Z,5.50
2019-02-15T11:50:12.832Z,5.03
2019-02-15T11:52:42.340Z,5.20
2019-02-15T11:55:12.175Z,5.47
2019-02-15T11:57:41.833Z,5.20
2019-02-15T12:00:18.421Z,5.20
2019-02-15T12:02:48.084Z,6.00
2019-02-15T12:05:17.536Z,4.83
2019-02-15T12:07:46.999Z,5.00
2019-02-15T12:10:16.448Z,4.87
2019-02-15T12:12:47.230Z,4.70
2019-02-15T12:15:16.669Z,4.47
2019-02-15T12:17:46.142Z,4.57
2019-02-15T12:20:15.924Z,4.80
2019-02-15T12:22:45.589Z,5.10
2019-02-15T12:25:14.959Z,4.87
2019-02-15T12:27:44.478Z,4.40
2019-02-15T12:30:14.990Z,5.07
2019-02-15T12:32:45.046Z,4.50
2019-02-15T12:35:14.654Z,4.60
2019-02-15T12:37:44.074Z,5.27
2019-02-15T12:40:15.182Z,5.00
2019-02-15T12:42:44.664Z,5.83
2019-02-15T12:45:14.979Z,5.10
2019-02-15T12:47:44.576Z,5.63
2019-02-15T12:50:18.733Z,4.77
2019-02-15T12:52:48.172Z,4.90
2019-02-15T12:55:17.635Z,5.97
2019-02-15T12:57:47.328Z,6.20
2019-02-15T13:00:17.629Z,6.17
2019-02-15T13:02:47.173Z,5.33
2019-02-15T13:05:16.685Z,5.60
2019-02-15T13:07:46.138Z,5.87
2019-02-15T13:10:25.959Z,5.53
2019-02-15T13:12:55.436Z,5.73
2019-02-15T13:15:25.092Z,5.63
2019-02-15T13:17:54.599Z,6.13
2019-02-15T13:20:24.231Z,5.63
2019-02-15T13:22:53.667Z,5.50
2019-02-15T13:25:23.046Z,5.37
2019-02-15T13:27:52.420Z,5.00
2019-02-15T13:30:21.798Z,5.30
2019-02-15T13:32:51.268Z,5.03
2019-02-15T13:35:23.739Z,5.13
2019-02-15T13:37:53.217Z,5.00
2019-02-15T13:40:22.658Z,5.17
2019-02-15T13:42:52.183Z,5.27
2019-02-15T13:45:21.574Z,4.73
2019-02-15T13:47:51.054Z,4.73
2019-02-15T13:50:20.545Z,4.70
2019-02-15T13:52:49.936Z,4.70
2019-02-15T13:55:19.341Z,4.90
2019-02-15T13:57:48.726Z,4.60
2019-02-15T14:00:18.218Z,4.80
2019-02-15T14:02:47.698Z,4.27
2019-02-15T14:05:17.072Z,4.70
2019-02-15T14:07:46.472Z,4.43
2019-02-15T14:10:16.102Z,4.00
2019-02-15T14:12:45.600Z,4.07
2019-02-15T14:15:15.094Z,4.47
2019-02-15T14:17:47.683Z,3.63
2019-02-15T14:20:15.659Z,3.77
2019-02-15T14:22:45.074Z,3.70
2019-02-15T14:25:14.560Z,3.43
2019-02-15T14:27:44.183Z,3.17
2019-02-15T14:30:14.616Z,2.90
2019-02-15T14:32:44.122Z,3.43
2019-02-15T14:35:14.382Z,3.37
2019-02-15T14:37:43.825Z,3.23
2019-02-15T14:40:14.162Z,3.53
2019-02-15T14:42:45.294Z,3.13
2019-02-15T14:45:14.962Z,3.07
2019-02-15T14:47:53.998Z,3.37
2019-02-15T14:50:15.630Z,3.23
2019-02-15T14:52:45.106Z,3.00
2019-02-15T14:55:14.539Z,3.50
2019-02-15T14:57:43.932Z,3.40
2019-02-15T15:00:14.370Z,3.37
2019-02-15T15:02:43.901Z,3.00
2019-02-15T15:05:13.833Z,3.23
2019-02-15T15:07:43.359Z,3.00
2019-02-15T15:10:12.976Z,3.67
2019-02-15T15:12:42.448Z,3.00
2019-02-15T15:15:14.094Z,3.10
2019-02-15T15:17:43.535Z,3.10
2019-02-15T15:20:13.715Z,3.43
2019-02-15T15:22:43.191Z,3.10
2019-02-15T15:25:13.749Z,3.10
2019-02-15T15:27:43.231Z,2.93
2019-02-15T15:30:14.089Z,3.10
2019-02-15T15:32:43.727Z,2.97
2019-02-15T15:35:13.309Z,3.07
2019-02-15T15:37:42.853Z,3.17
2019-02-15T15:40:14.414Z,3.43
2019-02-15T15:42:43.809Z,3.27
2019-02-15T15:45:13.553Z,2.83
2019-02-15T15:47:43.122Z,2.90
2019-02-15T15:50:12.874Z,3.20
2019-02-15T15:52:42.449Z,4.10
2019-02-15T15:55:13.142Z,3.30
2019-02-15T15:57:42.809Z,3.20
2019-02-15T16:00:14.186Z,3.67
2019-02-15T16:02:43.835Z,3.43
2019-02-15T16:05:13.193Z,3.13
2019-02-15T16:07:43.715Z,3.23
2019-02-15T16:10:14.409Z,3.10
2019-02-15T16:12:43.882Z,3.27
2019-02-15T16:15:13.967Z,3.67
2019-02-15T16:17:43.498Z,3.43
2019-02-15T16:20:13.814Z,3.20
2019-02-15T16:22:43.239Z,3.00
2019-02-15T16:25:12.812Z,4.33
2019-02-15T16:27:43.585Z,3.73
2019-02-15T16:30:14.555Z,3.93
2019-02-15T16:32:44.034Z,3.60
2019-02-15T16:35:13.455Z,5.37
2019-02-15T16:37:42.837Z,6.00
2019-02-15T16:40:14.034Z,4.90
2019-02-15T16:42:43.508Z,4.50
2019-02-15T16:45:14.913Z,5.63
2019-02-15T16:47:44.717Z,5.13
2019-02-15T16:50:14.443Z,4.30
2019-02-15T16:52:44.037Z,5.10
2019-02-15T16:55:13.672Z,4.77
2019-02-15T16:57:43.209Z,5.00
2019-02-15T17:00:13.695Z,5.10
2019-02-15T17:02:43.191Z,5.13
2019-02-15T17:05:13.101Z,4.70
2019-02-15T17:07:42.634Z,4.57
2019-02-15T17:10:12.344Z,4.97
2019-02-15T17:12:41.795Z,5.17
2019-02-15T17:15:14.293Z,5.47
2019-02-15T17:17:43.739Z,4.87
2019-02-15T17:20:13.296Z,5.00
2019-02-15T17:22:42.898Z,6.63
2019-02-15T17:25:12.635Z,6.30
2019-02-15T17:27:42.116Z,6.30
2019-02-15T17:30:11.955Z,6.10
2019-02-15T17:32:41.515Z,6.17
2019-02-15T17:35:11.668Z,6.00
2019-02-15T17:37:41.148Z,6.47
2019-02-15T17:40:15.685Z,6.47
2019-02-15T17:42:45.116Z,6.03
2019-02-15T17:45:14.648Z,6.20
2019-02-15T17:47:44.059Z,7.20
2019-02-15T17:50:13.583Z,5.90
2019-02-15T17:52:43.009Z,6.40
2019-02-15T17:55:12.519Z,5.40
2019-02-15T17:57:42.046Z,6.10
2019-02-15T18:00:13.727Z,6.10
2019-02-15T18:02:43.197Z,5.90
2019-02-15T18:05:18.803Z,6.17
2019-02-15T18:07:49.807Z,6.20
2019-02-15T18:10:19.259Z,6.23
2019-02-15T18:12:48.697Z,7.13
2019-02-15T18:15:18.060Z,6.67
2019-02-15T18:17:47.524Z,7.03
2019-02-15T18:20:16.949Z,8.27
2019-02-15T18:22:46.385Z,7.50
2019-02-15T18:25:15.855Z,7.40
2019-02-15T18:27:45.443Z,7.50
2019-02-15T18:30:16.084Z,7.60
2019-02-15T18:32:45.488Z,8.50
2019-02-15T18:35:14.871Z,9.70
2019-02-15T18:37:44.332Z,8.77
2019-02-15T18:40:13.825Z,9.10
2019-02-15T18:42:43.320Z,8.33
2019-02-15T18:45:15.191Z,9.47
2019-02-15T18:47:44.672Z,8.87
2019-02-15T18:50:14.436Z,9.20
2019-02-15T18:52:43.993Z,9.00
2019-02-15T18:55:13.473Z,10.27
2019-02-15T18:57:42.932Z,10.97
2019-02-15T19:00:15.501Z,9.57
2019-02-15T19:02:47.074Z,10.97
2019-02-15T19:05:16.437Z,10.50
2019-02-15T19:07:45.890Z,10.23
2019-02-15T19:10:17.909Z,9.63
2019-02-15T19:12:47.420Z,9.97
2019-02-15T19:15:17.188Z,9.60
2019-02-15T19:17:46.740Z,10.33
2019-02-15T19:20:17.094Z,9.30
2019-02-15T19:22:46.564Z,9.47
2019-02-15T19:25:17.782Z,9.70
2019-02-15T19:27:47.274Z,10.53
2019-02-15T19:30:19.498Z,10.83
2019-02-15T19:32:49.070Z,10.90
2019-02-15T19:35:18.462Z,10.63
2019-02-15T19:37:47.929Z,11.23
2019-02-15T19:40:19.246Z,10.70
2019-02-15T19:42:50.967Z,11.87
2019-02-15T19:45:20.484Z,11.77
2019-02-15T19:47:49.958Z,12.27
2019-02-15T19:50:19.434Z,11.20
2019-02-15T19:52:49.330Z,11.43
2019-02-15T19:55:18.843Z,11.40
2019-02-15T19:57:48.375Z,11.10
2019-02-15T20:00:19.209Z,10.77
2019-02-15T20:02:48.602Z,10.83
2019-02-15T20:05:18.027Z,10.57
2019-02-15T20:07:47.477Z,11.37
2019-02-15T20:10:20.476Z,10.20
2019-02-15T20:12:49.939Z,10.03
2019-02-15T20:15:19.381Z,10.27
2019-02-15T20:17:48.870Z,9.97
2019-02-15T20:20:18.478Z,10.23
2019-02-15T20:22:47.938Z,9.93
2019-02-15T20:25:17.324Z,10.67
2019-02-15T20:27:46.692Z,10.33
2019-02-15T20:30:23.432Z,10.37
2019-02-15T20:32:52.863Z,11.37
2019-02-15T20:35:22.375Z,11.07
2019-02-15T20:37:51.866Z,11.07
2019-02-15T20:40:21.294Z,11.33
2019-02-15T20:42:50.718Z,11.63
2019-02-15T20:45:22.388Z,10.70
2019-02-15T20:47:51.790Z,11.70
2019-02-15T20:50:21.493Z,12.40
2019-02-15T20:52:50.952Z,11.20
2019-02-15T20:55:20.577Z,11.00
2019-02-15T20:57:50.006Z,11.70
2019-02-15T21:00:28.096Z,12.00
2019-02-15T21:02:57.550Z,11.90
2019-02-15T21:05:26.982Z,12.07
2019-02-15T21:07:56.364Z,11.90
2019-02-15T21:10:25.826Z,12.10
2019-02-15T21:12:55.268Z,13.13
2019-02-15T21:15:24.648Z,13.67
2019-02-15T21:17:54.216Z,13.27
2019-02-15T21:20:24.673Z,14.83
2019-02-15T21:22:54.226Z,13.93
2019-02-15T21:25:23.620Z,14.40
2019-02-15T21:27:53.116Z,14.63
2019-02-15T21:30:22.540Z,13.87
2019-02-15T21:32:52.115Z,14.77
2019-02-15T21:35:21.572Z,14.70
2019-02-15T21:37:51.017Z,13.93
2019-02-15T21:40:20.525Z,14.67
2019-02-15T21:42:51.987Z,15.23
2019-02-15T21:45:20.996Z,14.43
2019-02-15T21:47:50.472Z,14.87
2019-02-15T21:50:19.947Z,15.70
2019-02-15T21:52:49.404Z,15.10
2019-02-15T21:55:18.808Z,14.77
2019-02-15T21:57:48.232Z,15.60
2019-02-15T22:00:22.810Z,13.70
2019-02-15T22:02:52.300Z,14.17
2019-02-15T22:05:21.794Z,14.47
2019-02-15T22:07:51.228Z,14.73
2019-02-15T22:10:20.676Z,15.23
2019-02-15T22:12:50.087Z,14.33
2019-02-15T22:15:19.470Z,15.70
2019-02-15T22:17:48.937Z,14.27
2019-02-15T22:20:26.380Z,14.63
2019-02-15T22:22:49.478Z,15.27
2019-02-15T22:25:18.882Z,15.70
2019-02-15T22:27:48.263Z,16.40
2019-02-15T22:30:19.012Z,16.83
2019-02-15T22:32:48.427Z,15.80
2019-02-15T22:35:17.848Z,15.83
2019-02-15T22:37:47.305Z,16.03
2019-02-15T22:40:22.888Z,15.47
2019-02-15T22:42:52.287Z,16.57
2019-02-15T22:45:21.779Z,16.00
2019-02-15T22:47:51.176Z,16.83
2019-02-15T22:50:20.571Z,16.37
2019-02-15T22:52:50.049Z,16.23
2019-02-15T22:55:19.434Z,16.07
2019-02-15T22:57:48.900Z,15.40
2019-02-15T23:00:26.652Z,17.10
2019-02-15T23:02:56.174Z,15.63
2019-02-15T23:05:25.594Z,14.83
2019-02-15T23:07:55.103Z,15.40
2019-02-15T23:10:24.516Z,15.03
2019-02-15T23:12:53.990Z,14.97
2019-02-15T23:15:23.378Z,15.23
2019-02-15T23:17:52.840Z,15.80
2019-02-15T23:20:22.303Z,15.37
2019-02-15T23:22:53.462Z,16.23
2019-02-15T23:25:24.994Z,15.33
2019-02-15T23:27:54.776Z,14.57
2019-02-15T23:30:24.262Z,15.87
2019-02-15T23:32:53.998Z,15.73
2019-02-15T23:35:23.422Z,14.87
2019-02-15T23:37:52.784Z,15.37
2019-02-15T23:40:22.244Z,16.20
2019-02-15T23:42:51.624Z,14.83
2019-02-15T23:45:21.078Z,15.20
2019-02-15T23:47:50.506Z,15.23
2019-02-15T23:50:19.885Z,15.10
2019-02-15T23:52:49.382Z,15.60
2019-02-15T23:55:18.838Z,14.77
2019-02-15T23:57:48.221Z,14.83
